Amoliani — D5DE9 — position and weather

sailwx.info

Track history (hours):
 
Tides and Currents Weather Stations Pressure Air Temp Water Temp Dewpoint Dewpoint Depression Visibility Wind Speed Wind Dir Waves Ship Positions

Amoliani

Last reported at 2018-May-28 03:49 UTC. Time now 2018-Jun-18 18:58 UTC.
Position N 37°23' E 025°55'.
Warning: this ship's position is 21 days out of date.

Length 270 m; draft 13.6 m.

Type: Ship (hazmat cat C). MMSI: 636015859.

Date/timePositionNaut miles runAvg speedWind from/ knotsBaromVisibWave heightAir tempDewpointWater temp
2018-May-28 03:49N 37°23' E 025°55'619.7
2018-May-28 03:30N 37°28' E 025°50'1019.9
2018-May-28 03:00N 37°38' E 025°50'  
2018-May-23 14:05N 37°34' E 023°55'819.8
2018-May-23 13:42N 37°37' E 023°46'420.3
2018-May-23 13:30N 37°39' E 023°43'918.3
2018-May-23 13:01N 37°48' E 023°38'713.9
2018-May-23 12:30N 37°55' E 023°37'3 5.4
2018-May-23 12:00N 37°57' E 023°35'0 0.3
2018-May-23 11:30N 37°57' E 023°35'0 0.0
2018-May-23 11:00N 37°57' E 023°35'0 0.0
2018-May-23 10:28N 37°57' E 023°35'0 0.0
2018-May-23 09:58N 37°57' E 023°35'0 0.0
2018-May-23 09:28N 37°57' E 023°35'0 0.0
2018-May-23 08:58N 37°57' E 023°35'0 0.0
2018-May-23 08:28N 37°57' E 023°35'0 0.0
2018-May-23 07:58N 37°57' E 023°35'0 0.0
2018-May-23 07:28N 37°57' E 023°35'0 0.0
2018-May-23 06:58N 37°57' E 023°35'0 0.0
2018-May-23 06:28N 37°57' E 023°35'0 0.0
2018-May-23 05:58N 37°57' E 023°35'0 0.0
2018-May-23 05:28N 37°57' E 023°35'0 0.0
2018-May-23 04:58N 37°57' E 023°35'0 0.0
2018-May-23 04:28N 37°57' E 023°35'0 0.0
2018-May-23 03:58N 37°57' E 023°35'0 0.0
2018-May-23 03:28N 37°57' E 023°35'0 0.0
2018-May-23 02:58N 37°57' E 023°35'0 0.0
2018-May-23 02:28N 37°57' E 023°35'0 0.0
2018-May-23 01:55N 37°57' E 023°35'0 0.0
2018-May-23 01:28N 37°57' E 023°35'0 0.0
2018-May-23 00:55N 37°57' E 023°35'0 0.0
2018-May-23 00:28N 37°57' E 023°35'0 0.0
2018-May-22 23:58N 37°57' E 023°35'0 0.0
2018-May-22 23:28N 37°57' E 023°35'0 0.0
2018-May-22 22:58N 37°57' E 023°35'0 0.0
2018-May-22 22:28N 37°57' E 023°35'0 0.0
2018-May-22 21:58N 37°57' E 023°35'0 0.0
2018-May-22 21:28N 37°57' E 023°35'0 0.0
2018-May-22 20:58N 37°57' E 023°35'0 0.0
2018-May-22 20:28N 37°57' E 023°35'0 0.0
2018-May-22 19:58N 37°57' E 023°35'0 0.0
2018-May-22 19:28N 37°57' E 023°35'0 0.0
2018-May-22 18:58N 37°57' E 023°35'0 0.0
2018-May-22 18:28N 37°57' E 023°35'0 0.0
2018-May-22 17:58N 37°57' E 023°35'0 0.0
2018-May-22 17:28N 37°57' E 023°35'0 0.0
2018-May-22 16:58N 37°57' E 023°35'0 0.0
2018-May-22 16:28N 37°57' E 023°35'0 0.0
2018-May-22 15:58N 37°57' E 023°35'0 0.0
2018-May-22 15:28N 37°57' E 023°35'0 0.0
2018-May-22 14:58N 37°57' E 023°35'0 0.0
2018-May-22 14:28N 37°57' E 023°35'0 0.0
2018-May-22 13:58N 37°57' E 023°35'0 0.0
2018-May-22 13:25N 37°57' E 023°35'0 0.0
2018-May-22 12:58N 37°57' E 023°35'0 0.0
2018-May-22 12:28N 37°57' E 023°35'0 0.0
2018-May-22 11:58N 37°57' E 023°35'0 0.5
2018-May-22 11:31N 37°57' E 023°35'3 5.0
2018-May-22 11:00N 37°55' E 023°34'1 1.4
2018-May-22 10:18N 37°54' E 023°34'0 0.3
2018-May-22 09:56N 37°54' E 023°34'0 0.4
2018-May-22 09:24N 37°53' E 023°34'0 0.1
2018-May-22 08:09N 37°53' E 023°34'0 0.4
2018-May-22 08:00N 37°53' E 023°34'0 0.3
2018-May-22 07:26N 37°54' E 023°34'1 2.1
2018-May-22 06:49N 37°53' E 023°36'2 7.8
2018-May-22 06:31N 37°51' E 023°38'4 8.3
2018-May-22 06:00N 37°48' E 023°41'714.1
2018-May-22 05:30N 37°41' E 023°45'816.7
2018-May-22 05:00N 37°33' E 023°48'  
2018-May-18 20:57N 34°05' E 034°29'3520.2
2018-May-18 19:13N 33°35' E 034°07'420.5
2018-May-18 19:00N 33°32' E 034°04'1020.3
2018-May-18 18:29N 33°23' E 033°57'1019.9
2018-May-18 17:58N 33°14' E 033°51'1320.1
2018-May-18 17:20N 33°04' E 033°42'720.2
2018-May-18 17:00N 32°58' E 033°37'1020.2
2018-May-18 16:30N 32°49' E 033°32'1020.1
2018-May-18 16:00N 32°41' E 033°26'1020.0
2018-May-18 15:30N 32°32' E 033°19'1020.0
2018-May-18 15:00N 32°24' E 033°13'1020.0
2018-May-18 14:30N 32°15' E 033°07'1020.0
2018-May-18 14:00N 32°07' E 033°00'1019.9
2018-May-18 13:30N 31°59' E 032°54'  
Track history (hours):
 
Tides and Currents Weather Stations Pressure Air Temp Water Temp Dewpoint Dewpoint Depression Visibility Wind Speed Wind Dir Waves Ship Positions

Amoliani

Last reported at 2018-May-28 03:49 UTC. Time now 2018-Jun-18 18:58 UTC.
Position N 37°23' E 025°55'.
Warning: this ship's position is 21 days out of date.

Length 270 m; draft 13.6 m.

Type: Ship (hazmat cat C). MMSI: 636015859.

Date/timePositionNaut miles runAvg speedWind from/ knotsBaromVisibWave heightAir tempDewpointWater temp
2018-May-28 03:49N 37°23' E 025°55'619.7
2018-May-28 03:30N 37°28' E 025°50'1019.9
2018-May-28 03:00N 37°38' E 025°50'  
2018-May-23 14:05N 37°34' E 023°55'819.8
2018-May-23 13:42N 37°37' E 023°46'420.3
2018-May-23 13:30N 37°39' E 023°43'918.3
2018-May-23 13:01N 37°48' E 023°38'713.9
2018-May-23 12:30N 37°55' E 023°37'3 5.4
2018-May-23 12:00N 37°57' E 023°35'0 0.3
2018-May-23 11:30N 37°57' E 023°35'0 0.0
2018-May-23 11:00N 37°57' E 023°35'0 0.0
2018-May-23 10:28N 37°57' E 023°35'0 0.0
2018-May-23 09:58N 37°57' E 023°35'0 0.0
2018-May-23 09:28N 37°57' E 023°35'0 0.0
2018-May-23 08:58N 37°57' E 023°35'0 0.0
2018-May-23 08:28N 37°57' E 023°35'0 0.0
2018-May-23 07:58N 37°57' E 023°35'0 0.0
2018-May-23 07:28N 37°57' E 023°35'0 0.0
2018-May-23 06:58N 37°57' E 023°35'0 0.0
2018-May-23 06:28N 37°57' E 023°35'0 0.0
2018-May-23 05:58N 37°57' E 023°35'0 0.0
2018-May-23 05:28N 37°57' E 023°35'0 0.0
2018-May-23 04:58N 37°57' E 023°35'0 0.0
2018-May-23 04:28N 37°57' E 023°35'0 0.0
2018-May-23 03:58N 37°57' E 023°35'0 0.0
2018-May-23 03:28N 37°57' E 023°35'0 0.0
2018-May-23 02:58N 37°57' E 023°35'0 0.0
2018-May-23 02:28N 37°57' E 023°35'0 0.0
2018-May-23 01:55N 37°57' E 023°35'0 0.0
2018-May-23 01:28N 37°57' E 023°35'0 0.0
2018-May-23 00:55N 37°57' E 023°35'0 0.0
2018-May-23 00:28N 37°57' E 023°35'0 0.0
2018-May-22 23:58N 37°57' E 023°35'0 0.0
2018-May-22 23:28N 37°57' E 023°35'0 0.0
2018-May-22 22:58N 37°57' E 023°35'0 0.0
2018-May-22 22:28N 37°57' E 023°35'0 0.0
2018-May-22 21:58N 37°57' E 023°35'0 0.0
2018-May-22 21:28N 37°57' E 023°35'0 0.0
2018-May-22 20:58N 37°57' E 023°35'0 0.0
2018-May-22 20:28N 37°57' E 023°35'0 0.0
2018-May-22 19:58N 37°57' E 023°35'0 0.0
2018-May-22 19:28N 37°57' E 023°35'0 0.0
2018-May-22 18:58N 37°57' E 023°35'0 0.0
2018-May-22 18:28N 37°57' E 023°35'0 0.0
2018-May-22 17:58N 37°57' E 023°35'0 0.0
2018-May-22 17:28N 37°57' E 023°35'0 0.0
2018-May-22 16:58N 37°57' E 023°35'0 0.0
2018-May-22 16:28N 37°57' E 023°35'0 0.0
2018-May-22 15:58N 37°57' E 023°35'0 0.0
2018-May-22 15:28N 37°57' E 023°35'0 0.0
2018-May-22 14:58N 37°57' E 023°35'0 0.0
2018-May-22 14:28N 37°57' E 023°35'0 0.0
2018-May-22 13:58N 37°57' E 023°35'0 0.0
2018-May-22 13:25N 37°57' E 023°35'0 0.0
2018-May-22 12:58N 37°57' E 023°35'0 0.0
2018-May-22 12:28N 37°57' E 023°35'0 0.0
2018-May-22 11:58N 37°57' E 023°35'0 0.5
2018-May-22 11:31N 37°57' E 023°35'3 5.0
2018-May-22 11:00N 37°55' E 023°34'1 1.4
2018-May-22 10:18N 37°54' E 023°34'0 0.3
2018-May-22 09:56N 37°54' E 023°34'0 0.4
2018-May-22 09:24N 37°53' E 023°34'0 0.1
2018-May-22 08:09N 37°53' E 023°34'0 0.4
2018-May-22 08:00N 37°53' E 023°34'0 0.3
2018-May-22 07:26N 37°54' E 023°34'1 2.1
2018-May-22 06:49N 37°53' E 023°36'2 7.8
2018-May-22 06:31N 37°51' E 023°38'4 8.3
2018-May-22 06:00N 37°48' E 023°41'714.1
2018-May-22 05:30N 37°41' E 023°45'816.7
2018-May-22 05:00N 37°33' E 023°48'  
2018-May-18 20:57N 34°05' E 034°29'3520.2
2018-May-18 19:13N 33°35' E 034°07'420.5
2018-May-18 19:00N 33°32' E 034°04'1020.3
2018-May-18 18:29N 33°23' E 033°57'1019.9
2018-May-18 17:58N 33°14' E 033°51'1320.1
2018-May-18 17:20N 33°04' E 033°42'720.2
2018-May-18 17:00N 32°58' E 033°37'1020.2
2018-May-18 16:30N 32°49' E 033°32'1020.1
2018-May-18 16:00N 32°41' E 033°26'1020.0
2018-May-18 15:30N 32°32' E 033°19'1020.0
2018-May-18 15:00N 32°24' E 033°13'1020.0
2018-May-18 14:30N 32°15' E 033°07'1020.0
2018-May-18 14:00N 32°07' E 033°00'1019.9
2018-May-18 13:30N 31°59' E 032°54'  

Dump ship's entire track history